Time;durP1;ratioP1;P1;durP2;ratioP2;P2;SDS_P1;SDS_P2;PMS_P1;PMS_P2;Temp;Humidity;BMP_temperature;BMP_pressure;BME280_temperature;BME280_humidity;BME280_pressure;Samples;Min_cycle;Max_cycle;Signal;HPM_P1;HPM_P2
2021/12/13 00:04:00;;;;;;;120.43;32.42;;;;;;;8.18;100.00;102168.25;10130658;28;20035;-72
2021/12/13 00:09:01;;;;;;;99.22;30.90;;;;;;;8.18;100.00;102168.25;10112003;28;20097;-71
2021/12/13 00:14:01;;;;;;;141.05;35.75;;;;;;;8.20;100.00;102171.53;10125063;28;20066;-74
2021/12/13 00:19:02;;;;;;;90.68;32.40;;;;;;;8.23;100.00;102168.28;10117193;28;20051;-71
2021/12/13 00:24:07;;;;;;;95.13;34.22;;;;;;;8.30;100.00;102175.38;10136019;28;20413;-72
2021/12/13 00:29:19;;;;;;;112.13;35.28;;;;;;;8.33;100.00;102172.13;10120568;28;20078;-72
2021/12/13 00:34:33;;;;;;;91.78;32.10;;;;;;;8.34;100.00;102181.94;10124118;28;20493;-74
2021/12/13 00:39:35;;;;;;;80.68;29.40;;;;;;;8.26;100.00;102174.28;10121962;28;20547;-75
2021/12/13 00:44:39;;;;;;;111.47;34.20;;;;;;;8.23;100.00;102181.09;10115223;28;20070;-75
2021/12/13 00:49:40;;;;;;;74.75;27.52;;;;;;;8.28;100.00;102183.00;10122216;28;20133;-72
2021/12/13 00:54:39;;;;;;;85.07;29.27;;;;;;;8.28;100.00;102191.19;10123490;28;20101;-73
2021/12/13 00:59:40;;;;;;;63.25;26.38;;;;;;;8.28;100.00;102189.28;10124884;28;20069;-72
2021/12/13 01:05:14;;;;;;;64.78;25.90;;;;;;;8.27;100.00;102186.84;10121765;28;20112;-73
2021/12/13 01:10:42;;;;;;;62.23;25.23;;;;;;;8.28;100.00;102188.47;10121941;28;20393;-68
2021/12/13 01:15:49;;;;;;;60.22;22.80;;;;;;;8.25;100.00;102194.44;10104207;28;20046;-76
2021/12/13 01:21:16;;;;;;;55.72;21.73;;;;;;;8.28;100.00;102204.81;10132602;28;20066;-74
2021/12/13 01:26:36;;;;;;;46.38;20.33;;;;;;;8.29;100.00;102201.81;10114642;28;20520;-73
2021/12/13 01:31:53;;;;;;;42.05;18.15;;;;;;;8.29;100.00;102207.28;10109410;28;20134;-75
2021/12/13 01:37:02;;;;;;;36.83;15.93;;;;;;;8.30;100.00;102208.91;10119240;28;20134;-75
2021/12/13 01:42:04;;;;;;;35.30;16.67;;;;;;;8.29;100.00;102223.63;10113231;28;20105;-73
2021/12/13 01:47:09;;;;;;;33.88;16.52;;;;;;;8.29;100.00;102215.47;10118435;28;20043;-74
2021/12/13 01:52:19;;;;;;;29.55;16.00;;;;;;;8.33;100.00;102219.28;10142526;28;20039;-69
2021/12/13 01:57:25;;;;;;;32.95;15.23;;;;;;;8.35;100.00;102221.72;10111967;28;20100;-73
2021/12/13 02:07:37;;;;;;;33.67;15.07;;;;;;;8.40;100.00;102213.59;10944650;23;20490;-69
2021/12/13 02:12:36;;;;;;;28.77;12.40;;;;;;;8.42;100.00;102216.88;10063071;28;20055;-74
2021/12/13 02:17:33;;;;;;;29.70;13.90;;;;;;;8.38;100.00;102210.31;10018466;28;20123;-75
2021/12/13 02:22:35;;;;;;;32.30;14.07;;;;;;;8.38;100.00;102213.03;10017281;28;20099;-75
2021/12/13 02:27:35;;;;;;;33.75;14.23;;;;;;;8.39;100.00;102212.75;10019456;29;20074;-75
2021/12/13 02:32:35;;;;;;;30.38;14.00;;;;;;;8.44;100.00;102220.16;10011245;29;20036;-71
2021/12/13 02:37:32;;;;;;;26.88;12.32;;;;;;;8.45;100.00;102227.28;10012313;29;20044;-71
2021/12/13 02:42:30;;;;;;;33.13;13.45;;;;;;;8.43;100.00;102240.34;10026076;28;20134;-75
2021/12/13 02:47:49;;;;;;;33.65;13.32;;;;;;;8.48;100.00;102236.81;10030956;28;20059;-74
2021/12/13 02:52:46;;;;;;;23.20;10.88;;;;;;;8.49;100.00;102233.81;10018818;28;20044;-75
2021/12/13 02:57:47;;;;;;;24.63;10.60;;;;;;;8.49;100.00;102239.25;10011807;28;20103;-75
2021/12/13 03:02:46;;;;;;;22.80;10.20;;;;;;;8.55;100.00;102232.75;10014437;28;20465;-73
2021/12/13 03:07:48;;;;;;;23.88;10.57;;;;;;;8.55;100.00;102230.03;10029311;29;20066;-74
2021/12/13 03:13:06;;;;;;;26.03;10.57;;;;;;;8.52;100.00;102243.38;10032309;28;20052;-73
2021/12/13 03:18:29;;;;;;;29.30;11.60;;;;;;;8.52;100.00;102244.19;10022738;29;20063;-73
2021/12/13 03:23:51;;;;;;;27.70;10.75;;;;;;;8.54;100.00;102247.50;10032765;28;20131;-72
2021/12/13 03:29:11;;;;;;;25.33;11.43;;;;;;;8.59;100.00;102250.22;10020676;29;20067;-71
2021/12/13 03:34:22;;;;;;;32.00;12.40;;;;;;;8.60;100.00;102257.31;10039195;28;20119;-71
2021/12/13 03:39:25;;;;;;;26.50;10.45;;;;;;;8.62;100.00;102254.31;10026729;29;20095;-71
2021/12/13 03:44:28;;;;;;;;;;;;;;;8.62;100.00;102244.22;10029129;29;20166;-71
2021/12/13 03:49:25;;;;;;;29.30;10.37;;;;;;;8.63;100.00;102250.50;10025600;28;19965;-72
2021/12/13 03:54:26;;;;;;;28.73;10.63;;;;;;;8.63;100.00;102251.34;10028743;28;21407;-72
2021/12/13 03:59:27;;;;;;;26.88;11.43;;;;;;;8.66;100.00;102254.59;10025073;29;20115;-72
2021/12/13 04:04:34;;;;;;;25.95;10.98;;;;;;;8.67;100.00;102267.16;10018168;29;20055;-70
2021/12/13 04:09:31;;;;;;;33.03;11.77;;;;;;;8.67;100.00;102278.06;10039375;28;20083;-70
2021/12/13 04:14:35;;;;;;;28.70;11.15;;;;;;;8.74;100.00;102275.91;10024544;29;20405;-70
2021/12/13 04:19:47;;;;;;;27.75;11.73;;;;;;;8.75;100.00;102263.91;10032610;29;20829;-71
2021/12/13 04:25:06;;;;;;;28.67;12.18;;;;;;;8.77;100.00;102278.09;10018080;28;20083;-70
2021/12/13 04:30:31;;;;;;;28.75;12.00;;;;;;;8.81;100.00;102281.94;10021484;28;20096;-69
2021/12/13 04:35:30;;;;;;;34.58;13.55;;;;;;;8.82;100.00;102280.84;10021849;28;20473;-71
2021/12/13 04:40:30;;;;;;;32.40;13.48;;;;;;;8.87;100.00;102286.31;10023650;29;20084;-72
2021/12/13 04:45:28;;;;;;;37.60;14.27;;;;;;;8.88;100.00;102285.22;10020422;29;20068;-69
2021/12/13 04:50:30;;;;;;;36.72;14.95;;;;;;;8.90;100.00;102298.59;10023073;28;20051;-70
2021/12/13 04:55:31;;;;;;;37.33;14.30;;;;;;;8.89;100.00;102308.69;10026401;28;20048;-71
2021/12/13 05:00:33;;;;;;;32.88;13.10;;;;;;;8.91;100.00;102308.41;10025069;28;20102;-74
2021/12/13 05:05:34;;;;;;;35.30;12.90;;;;;;;8.91;100.00;102298.34;10017840;28;20543;-68
2021/12/13 05:10:33;;;;;;;31.88;12.15;;;;;;;8.96;100.00;102308.47;10021244;29;20094;-75
2021/12/13 05:15:30;;;;;;;28.55;11.73;;;;;;;8.95;100.00;102304.88;10016626;29;20489;-74
2021/12/13 05:20:37;;;;;;;27.37;11.43;;;;;;;8.96;100.00;102314.72;10021351;29;20528;-71
2021/12/13 05:25:39;;;;;;;34.17;13.77;;;;;;;8.94;100.00;102321.53;10017392;29;20132;-73
2021/12/13 05:30:51;;;;;;;33.27;14.07;;;;;;;8.98;100.00;102323.47;10041744;29;20079;-71
2021/12/13 05:35:52;;;;;;;40.15;14.63;;;;;;;8.95;100.00;102314.97;10033561;29;20043;-72
2021/12/13 05:40:49;;;;;;;44.40;18.50;;;;;;;8.97;100.00;102327.25;10033012;29;20128;-75
2021/12/13 05:45:58;;;;;;;40.35;15.50;;;;;;;8.92;100.00;102324.53;10022268;29;20070;-70
2021/12/13 05:50:59;;;;;;;40.85;15.95;;;;;;;8.96;100.00;102325.63;10014932;29;20076;-71
2021/12/13 05:56:17;;;;;;;42.03;15.25;;;;;;;8.96;100.00;102336.56;10012866;29;19930;-70
2021/12/13 06:01:37;;;;;;;34.05;15.13;;;;;;;8.97;100.00;102348.28;10014777;28;20177;-69
2021/12/13 06:06:45;;;;;;;34.50;13.98;;;;;;;9.01;100.00;102352.13;10014329;29;20055;-70
2021/12/13 06:11:59;;;;;;;37.45;15.65;;;;;;;8.98;100.00;102339.00;10004412;29;20130;-69
2021/12/13 06:17:12;;;;;;;;;;;;;;;9.02;100.00;102351.81;10011887;29;20095;-70
2021/12/13 06:22:16;;;;;;;36.38;13.90;;;;;;;9.05;100.00;102361.38;10014943;29;19954;-70
2021/12/13 06:27:19;;;;;;;43.60;16.67;;;;;;;9.04;100.00;102366.03;10010207;29;20459;-71
2021/12/13 06:32:42;;;;;;;33.97;15.80;;;;;;;9.06;100.00;102363.84;10012934;29;20039;-72
2021/12/13 06:37:39;;;;;;;41.97;16.08;;;;;;;9.09;100.00;102357.03;10022739;29;20049;-70
2021/12/13 06:42:35;;;;;;;40.80;15.70;;;;;;;9.11;100.00;102370.44;10020507;28;20069;-72
2021/12/13 06:47:32;;;;;;;43.38;17.98;;;;;;;9.10;100.00;102379.69;10004067;29;20110;-73
2021/12/13 06:52:34;;;;;;;45.70;17.15;;;;;;;9.12;100.00;102380.25;10016060;28;20086;-71
2021/12/13 06:57:41;;;;;;;52.08;18.67;;;;;;;9.12;100.00;102388.44;10011256;29;20126;-71
2021/12/13 07:02:45;;;;;;;56.17;18.85;;;;;;;9.13;100.00;102392.81;10006888;29;20044;-71
2021/12/13 07:07:57;;;;;;;45.00;17.48;;;;;;;9.17;100.00;102392.00;10012822;29;20130;-71
2021/12/13 07:12:58;;;;;;;49.67;18.45;;;;;;;9.17;100.00;102405.66;10022990;29;20130;-70
2021/12/13 07:18:14;;;;;;;47.10;17.55;;;;;;;9.18;100.00;102414.66;10023657;28;20076;-71
2021/12/13 07:23:11;;;;;;;36.03;15.52;;;;;;;9.17;100.00;102418.50;10015991;29;20075;-71
2021/12/13 07:28:09;;;;;;;44.05;16.75;;;;;;;9.20;100.00;102417.94;10028749;29;20220;-70
2021/12/13 07:33:09;;;;;;;27.73;12.60;;;;;;;9.21;100.00;102419.56;10018930;29;20514;-70
2021/12/13 07:38:10;;;;;;;29.33;12.68;;;;;;;9.23;100.00;102433.78;10027575;29;20473;-74
2021/12/13 07:43:15;;;;;;;29.27;12.63;;;;;;;9.17;100.00;102434.88;10015321;29;20040;-70
2021/12/13 07:48:20;;;;;;;28.30;12.60;;;;;;;9.16;100.00;102430.47;10020696;29;20078;-70
2021/12/13 07:53:17;;;;;;;30.63;12.98;;;;;;;9.17;100.00;102429.41;10016480;29;20044;-70
2021/12/13 07:58:32;;;;;;;29.05;14.05;;;;;;;9.18;100.00;102436.50;10017276;29;20522;-70
2021/12/13 08:03:28;;;;;;;29.20;14.02;;;;;;;9.18;100.00;102436.50;10007326;28;20036;-72
2021/12/13 08:08:27;;;;;;;34.83;15.65;;;;;;;9.17;100.00;102445.78;10014799;29;20482;-72
2021/12/13 08:13:28;;;;;;;30.33;14.68;;;;;;;9.21;100.00;102452.31;10016363;29;20139;-72
2021/12/13 08:18:37;;;;;;;30.30;13.93;;;;;;;9.23;100.00;102461.06;10003917;29;20103;-72
2021/12/13 08:23:42;;;;;;;26.77;13.65;;;;;;;9.22;100.00;102459.44;10015973;29;20095;-71
2021/12/13 08:28:48;;;;;;;29.60;13.77;;;;;;;9.24;100.00;102462.72;10015032;29;20043;-72
2021/12/13 08:33:49;;;;;;;28.00;13.70;;;;;;;9.32;100.00;102459.47;10011079;29;20517;-72
2021/12/13 08:38:48;;;;;;;28.13;14.43;;;;;;;9.31;100.00;102466.03;10029411;28;20051;-73
2021/12/13 08:43:48;;;;;;;27.88;14.52;;;;;;;9.33;100.00;102472.06;10022327;29;20051;-72
2021/12/13 08:48:48;;;;;;;26.13;14.05;;;;;;;9.36;100.00;102481.63;10036461;29;20114;-71
2021/12/13 08:53:57;;;;;;;27.25;14.65;;;;;;;9.35;100.00;102479.97;10023797;29;20040;-72
2021/12/13 08:59:03;;;;;;;28.95;15.57;;;;;;;9.36;100.00;102476.97;10019942;28;20087;-70
2021/12/13 09:04:01;;;;;;;30.77;16.20;;;;;;;9.37;100.00;102494.97;10019688;29;20134;-71
2021/12/13 09:09:14;;;;;;;32.33;17.20;;;;;;;9.40;100.00;102489.00;10011297;29;20072;-70
2021/12/13 09:14:20;;;;;;;30.42;16.88;;;;;;;9.40;100.00;102499.94;10009928;29;20047;-72
2021/12/13 09:19:31;;;;;;;34.08;17.40;;;;;;;9.43;100.00;102502.13;10005655;29;20521;-71
2021/12/13 09:24:51;;;;;;;33.33;16.42;;;;;;;9.48;100.00;102507.59;10011701;29;20139;-71
2021/12/13 09:29:51;;;;;;;34.53;18.05;;;;;;;9.51;100.00;102499.97;10017492;29;20090;-71
2021/12/13 09:34:51;;;;;;;36.30;18.02;;;;;;;9.55;100.00;102501.06;10018453;29;20051;-73
2021/12/13 09:40:00;;;;;;;36.00;18.90;;;;;;;9.55;100.00;102501.06;10024391;28;20083;-71
2021/12/13 09:45:01;;;;;;;37.15;19.25;;;;;;;9.55;100.00;102490.16;10016857;29;20056;-69
2021/12/13 09:49:57;;;;;;;35.83;18.35;;;;;;;9.58;100.00;102489.59;10035302;29;20044;-71
2021/12/13 09:55:01;;;;;;;32.38;18.70;;;;;;;9.57;100.00;102488.78;10014428;28;20076;-72
2021/12/13 10:00:00;;;;;;;28.98;16.30;;;;;;;9.60;100.00;102492.91;10022795;29;20163;-72
2021/12/13 10:04:58;;;;;;;32.78;16.77;;;;;;;9.67;100.00;102494.28;10003432;29;20056;-70
2021/12/13 10:10:00;;;;;;;31.77;16.30;;;;;;;9.71;100.00;102499.22;10016375;29;20072;-70
2021/12/13 10:15:10;;;;;;;26.23;15.70;;;;;;;9.68;100.00;102489.66;10015475;29;20048;-70
2021/12/13 10:20:13;;;;;;;23.30;14.88;;;;;;;9.72;100.00;102498.94;10011828;29;20115;-72
2021/12/13 10:25:27;;;;;;;24.38;14.38;;;;;;;9.72;100.00;102501.66;10030224;28;20075;-72
2021/12/13 10:30:30;;;;;;;22.25;12.32;;;;;;;9.71;100.00;102502.78;10027314;28;20066;-71
2021/12/13 10:35:32;;;;;;;22.25;14.68;;;;;;;9.76;100.00;102502.78;10030960;28;20071;-69
2021/12/13 10:40:46;;;;;;;21.60;11.93;;;;;;;9.80;100.00;102501.16;10021840;29;20047;-71
2021/12/13 10:45:59;;;;;;;23.33;12.48;;;;;;;9.86;100.00;102502.81;10024129;29;20764;-71
2021/12/13 10:51:05;;;;;;;24.35;12.30;;;;;;;9.87;100.00;102503.63;10018041;28;20072;-72
2021/12/13 10:56:09;;;;;;;19.25;11.98;;;;;;;9.90;100.00;102509.38;10013780;29;20044;-73
2021/12/13 11:01:23;;;;;;;22.02;11.80;;;;;;;9.95;100.00;102500.38;10007104;29;20094;-73
2021/12/13 11:06:21;;;;;;;19.15;9.88;;;;;;;9.94;100.00;102489.72;10011849;29;20052;-72
2021/12/13 11:11:29;;;;;;;15.27;8.77;;;;;;;10.00;100.00;102494.09;10012886;29;20055;-71
2021/12/13 11:16:36;;;;;;;17.60;9.85;;;;;;;9.98;100.00;102491.66;10007067;29;20086;-72
2021/12/13 11:21:35;;;;;;;14.30;8.30;;;;;;;10.01;100.00;102477.44;10018937;28;20063;-72
2021/12/13 11:26:35;;;;;;;14.68;7.78;;;;;;;10.17;100.00;102474.72;10021277;29;20056;-72
2021/12/13 11:31:33;;;;;;;13.80;8.18;;;;;;;10.12;100.00;102472.81;10012094;28;20052;-73
2021/12/13 11:36:50;;;;;;;13.75;7.82;;;;;;;9.99;100.00;102462.41;10007212;29;20159;-71
2021/12/13 11:42:04;;;;;;;14.20;8.80;;;;;;;9.96;100.00;102463.75;10019620;29;20086;-72
2021/12/13 11:47:40;;;;;;;16.67;9.90;;;;;;;9.86;100.00;102458.25;10016476;29;20570;-73
2021/12/13 11:52:59;;;;;;;13.75;9.25;;;;;;;9.81;100.00;102456.34;10029225;28;20095;-73
2021/12/13 11:58:36;;;;;;;20.00;9.88;;;;;;;9.79;100.00;102460.44;10027218;29;20510;-72
2021/12/13 12:03:41;;;;;;;19.27;10.68;;;;;;;9.82;100.00;102459.91;10024574;29;20131;-71
2021/12/13 12:09:06;;;;;;;19.58;11.90;;;;;;;9.79;100.00;102452.25;10010130;29;20118;-71
2021/12/13 12:14:09;;;;;;;19.10;12.15;;;;;;;9.81;100.00;102461.81;10019870;29;20144;-72
2021/12/13 12:19:13;;;;;;;23.95;13.60;;;;;;;9.85;100.00;102462.91;10007677;29;20044;-72
2021/12/13 12:24:21;;;;;;;21.40;12.80;;;;;;;9.80;100.00;102471.09;10021240;29;20083;-71
2021/12/13 12:29:23;;;;;;;24.67;13.18;;;;;;;9.83;100.00;102465.09;10012616;28;20513;-73
2021/12/13 12:34:19;;;;;;;21.10;12.15;;;;;;;9.82;100.00;102466.19;10019413;29;20079;-70
2021/12/13 12:39:38;;;;;;;19.50;11.75;;;;;;;9.79;100.00;102453.06;10020399;29;20091;-71
2021/12/13 12:45:03;;;;;;;16.80;11.60;;;;;;;9.80;100.00;102454.72;10013146;29;20476;-71
2021/12/13 12:50:17;;;;;;;22.88;13.30;;;;;;;9.77;100.00;102449.81;10018032;29;20059;-70
2021/12/13 12:55:18;;;;;;;20.23;11.85;;;;;;;9.77;100.00;102455.28;10021058;29;20128;-70
2021/12/13 13:00:20;;;;;;;23.23;13.80;;;;;;;9.77;100.00;102452.53;10008876;29;20139;-70
2021/12/13 13:05:21;;;;;;;21.58;13.27;;;;;;;9.76;100.00;102461.81;10013625;28;20059;-71
2021/12/13 13:15:28;;;;;;;19.52;11.68;;;;;;;9.76;100.00;102470.00;10012429;28;20278;-71
2021/12/13 13:20:33;;;;;;;18.25;12.20;;;;;;;9.69;100.00;102463.97;10004767;28;20114;-70
2021/12/13 13:25:33;;;;;;;22.38;13.95;;;;;;;9.68;100.00;102465.06;10018829;29;20172;-70
2021/12/13 13:30:34;;;;;;;21.48;14.00;;;;;;;9.66;100.00;102461.78;10015465;29;20052;-69
2021/12/13 13:35:31;;;;;;;21.58;14.02;;;;;;;9.66;100.00;102472.72;10015742;29;20062;-72
2021/12/13 13:40:35;;;;;;;19.05;13.32;;;;;;;9.66;100.00;102464.53;10040793;29;20462;-71
2021/12/13 13:45:35;;;;;;;21.63;13.80;;;;;;;9.68;100.00;102462.34;10025111;28;20557;-70
2021/12/13 13:50:40;;;;;;;23.33;12.20;;;;;;;9.65;100.00;102468.31;10011284;29;20499;-70
2021/12/13 13:55:45;;;;;;;21.30;12.65;;;;;;;9.61;100.00;102462.59;10019536;28;20612;-70
2021/12/13 14:00:47;;;;;;;20.52;12.80;;;;;;;9.66;100.00;102472.72;10017233;28;20131;-73
2021/12/13 14:05:46;;;;;;;22.42;13.70;;;;;;;9.64;100.00;102477.63;10015137;28;20516;-72
2021/12/13 14:10:42;;;;;;;24.70;14.02;;;;;;;9.64;100.00;102472.16;10027705;28;20529;-72
2021/12/13 14:15:42;;;;;;;22.20;13.70;;;;;;;9.62;100.00;102479.78;10018956;28;20126;-72
2021/12/13 14:20:43;;;;;;;24.02;13.38;;;;;;;9.54;100.00;102474.84;10018721;28;20055;-70
2021/12/13 14:25:52;;;;;;;27.50;14.13;;;;;;;9.54;100.00;102478.41;10022923;29;20051;-71
2021/12/13 14:30:51;;;;;;;24.70;14.65;;;;;;;9.50;100.00;102481.94;10017687;29;20158;-72
2021/12/13 14:36:00;;;;;;;25.67;15.10;;;;;;;9.50;100.00;102477.31;10015790;29;20055;-71
2021/12/13 14:40:59;;;;;;;22.35;13.88;;;;;;;9.43;100.00;102474.81;10018440;29;20051;-71
2021/12/13 14:45:58;;;;;;;25.00;15.07;;;;;;;9.36;100.00;102482.44;10021909;29;20453;-71
2021/12/13 14:51:08;;;;;;;24.50;14.82;;;;;;;9.39;100.00;102492.81;10016274;29;20350;-71
2021/12/13 14:56:16;;;;;;;23.35;16.33;;;;;;;9.37;100.00;102484.06;10024665;28;20083;-70
2021/12/13 15:01:17;;;;;;;26.33;16.52;;;;;;;9.31;100.00;102490.59;10020678;29;20079;-70
2021/12/13 15:06:18;;;;;;;25.92;15.25;;;;;;;9.31;100.00;102482.41;10021472;28;20048;-72
2021/12/13 15:11:25;;;;;;;28.23;16.83;;;;;;;9.32;100.00;102492.22;10029172;29;20481;-72
2021/12/13 15:16:22;;;;;;;24.75;15.65;;;;;;;9.24;100.00;102490.84;10008971;29;20595;-70
2021/12/13 15:21:27;;;;;;;25.98;16.52;;;;;;;9.27;100.00;102495.75;10014750;28;20131;-71
2021/12/13 15:26:28;;;;;;;23.08;15.82;;;;;;;9.26;100.00;102499.59;10016639;28;20486;-71
2021/12/13 15:31:45;;;;;;;24.45;15.43;;;;;;;9.23;100.00;102493.81;10023772;29;20462;-71
2021/12/13 15:36:42;;;;;;;28.17;16.98;;;;;;;9.22;100.00;102492.19;10028884;29;20050;-69
2021/12/13 15:41:40;;;;;;;27.02;16.60;;;;;;;9.19;100.00;102500.88;10028704;28;20085;-69
2021/12/13 15:46:40;;;;;;;27.65;18.23;;;;;;;9.23;100.00;102488.38;10028517;29;20075;-71
2021/12/13 15:51:43;;;;;;;29.23;18.23;;;;;;;9.20;100.00;102488.91;10026788;28;20076;-71
2021/12/13 15:56:44;;;;;;;23.73;16.23;;;;;;;9.18;100.00;102486.44;10034787;29;20055;-71
2021/12/13 16:01:44;;;;;;;27.45;17.38;;;;;;;9.16;100.00;102504.16;10030508;28;20134;-72
2021/12/13 16:06:45;;;;;;;25.13;17.95;;;;;;;9.16;100.00;102499.50;10012319;29;20676;-70
2021/12/13 16:11:48;;;;;;;26.15;17.50;;;;;;;9.17;100.00;102500.38;10018709;28;20135;-72
2021/12/13 16:17:12;;;;;;;27.27;18.80;;;;;;;9.16;100.00;102512.34;10017220;29;20048;-72
2021/12/13 16:22:37;;;;;;;27.55;18.52;;;;;;;9.19;100.00;102496.28;10024654;29;20075;-70
2021/12/13 16:27:46;;;;;;;26.08;19.75;;;;;;;9.20;100.00;102499.81;10023829;28;20170;-71
2021/12/13 16:32:44;;;;;;;29.45;17.92;;;;;;;9.18;100.00;102508.25;10031208;28;20051;-72
2021/12/13 16:37:41;;;;;;;28.42;18.02;;;;;;;9.15;100.00;102502.53;10019180;29;20052;-73
2021/12/13 16:42:42;;;;;;;28.88;17.23;;;;;;;9.14;100.00;102496.22;10038356;28;20580;-73
2021/12/13 16:47:38;;;;;;;29.20;18.02;;;;;;;9.15;100.00;102497.88;10019393;28;20055;-72
2021/12/13 16:52:35;;;;;;;25.33;16.98;;;;;;;9.06;100.00;102496.75;10007852;29;20050;-71
2021/12/13 16:57:36;;;;;;;26.02;17.15;;;;;;;9.11;100.00;102501.41;10023768;28;20131;-71
2021/12/13 17:02:33;;;;;;;27.92;17.70;;;;;;;9.12;100.00;102498.44;10022339;29;20047;-69
2021/12/13 17:07:33;;;;;;;23.40;17.13;;;;;;;9.11;100.00;102491.31;10020828;29;20466;-70
2021/12/13 17:12:56;;;;;;;28.42;18.98;;;;;;;9.11;100.00;102494.03;10013139;29;20107;-72
2021/12/13 17:17:52;;;;;;;25.83;16.92;;;;;;;9.06;100.00;102488.56;10025989;29;20060;-72
2021/12/13 17:22:49;;;;;;;28.98;19.02;;;;;;;9.08;100.00;102491.03;10022155;28;20056;-72
2021/12/13 17:27:55;;;;;;;30.90;20.55;;;;;;;9.02;100.00;102485.53;10026373;28;20114;-71
2021/12/13 17:32:55;;;;;;;29.98;19.85;;;;;;;9.01;100.00;102494.81;10025194;29;20083;-71
2021/12/13 17:38:01;;;;;;;27.52;18.25;;;;;;;8.96;100.00;102500.25;10027400;29;20047;-72
2021/12/13 17:43:03;;;;;;;28.25;19.30;;;;;;;9.00;100.00;102501.34;10024014;29;20473;-74
2021/12/13 17:48:08;;;;;;;31.70;21.03;;;;;;;8.95;100.00;102509.50;10019000;29;20074;-72
2021/12/13 17:53:10;;;;;;;29.00;20.00;;;;;;;8.96;100.00;102515.78;10024257;28;20079;-72
2021/12/13 17:58:55;;;;;;;30.33;20.53;;;;;;;8.94;100.00;102510.59;10022251;28;20495;-72
2021/12/13 18:04:18;;;;;;;29.50;20.55;;;;;;;8.89;100.00;102518.75;9979791;29;20044;-71
2021/12/13 18:09:31;;;;;;;31.42;19.98;;;;;;;8.87;100.00;102511.91;10028002;28;20051;-71
2021/12/13 18:14:33;;;;;;;30.10;20.57;;;;;;;8.87;100.00;102523.63;10015183;28;20107;-71
2021/12/13 18:19:39;;;;;;;27.35;18.77;;;;;;;8.84;100.00;102537.78;10020407;29;20075;-72
2021/12/13 18:24:38;;;;;;;31.63;19.40;;;;;;;8.87;100.00;102529.09;10013317;29;20096;-73
2021/12/13 18:29:45;;;;;;;31.20;18.50;;;;;;;8.84;100.00;102529.59;10024719;29;20488;-71
2021/12/13 18:34:42;;;;;;;32.22;20.13;;;;;;;8.75;100.00;102526.56;10011521;29;20098;-73
2021/12/13 18:39:44;;;;;;;27.17;18.73;;;;;;;8.79;100.00;102526.84;10020241;28;20087;-73
2021/12/13 18:44:55;;;;;;;25.50;19.65;;;;;;;8.80;100.00;102531.22;10022883;28;20510;-73
2021/12/13 18:49:57;;;;;;;29.15;19.65;;;;;;;8.76;100.00;102532.81;10008395;29;20489;-75
2021/12/13 18:54:53;;;;;;;28.47;20.00;;;;;;;8.78;100.00;102530.66;10019280;29;20098;-74
2021/12/13 19:00:18;;;;;;;31.02;19.80;;;;;;;8.75;100.00;102525.72;10027110;29;20075;-71
2021/12/13 19:05:34;;;;;;;29.00;19.02;;;;;;;8.78;100.00;102530.66;9981656;29;1045487;-74
2021/12/13 19:10:49;;;;;;;29.30;19.23;;;;;;;8.77;100.00;102518.09;10025594;29;20067;-70
2021/12/13 19:15:52;;;;;;;35.42;21.80;;;;;;;8.70;100.00;102522.94;10017557;29;20070;-72
2021/12/13 19:20:56;;;;;;;35.55;22.88;;;;;;;8.70;100.00;102512.03;10019212;29;20454;-72
2021/12/13 19:25:58;;;;;;;29.95;19.17;;;;;;;8.66;100.00;102513.63;10028843;28;20566;-71
2021/12/13 19:31:14;;;;;;;32.78;21.75;;;;;;;8.72;100.00;102509.88;10019530;29;20052;-70
2021/12/13 19:36:28;;;;;;;27.77;18.33;;;;;;;8.74;100.00;102513.16;10019844;29;20127;-71
2021/12/13 19:41:37;;;;;;;28.75;19.27;;;;;;;8.73;100.00;102517.00;10005771;29;20044;-71
2021/12/13 19:46:37;;;;;;;33.20;21.58;;;;;;;8.74;100.00;102503.06;10008985;29;20079;-70
2021/12/13 19:51:45;;;;;;;30.13;19.45;;;;;;;8.68;100.00;102509.59;10025073;29;20083;-73
2021/12/13 19:56:46;;;;;;;26.52;18.17;;;;;;;8.57;100.00;102514.13;10021682;28;20122;-70
2021/12/13 20:01:51;;;;;;;29.23;21.27;;;;;;;8.61;100.00;102523.44;10013718;28;20153;-70
2021/12/13 20:06:59;;;;;;;27.98;19.23;;;;;;;8.63;100.00;102518.56;10004142;28;20513;-71
2021/12/13 20:12:16;;;;;;;28.40;19.10;;;;;;;8.64;100.00;102513.91;10027889;28;20313;-70
2021/12/13 20:17:34;;;;;;;28.80;18.90;;;;;;;8.58;100.00;102504.84;10029917;28;20537;-70
2021/12/13 20:22:37;;;;;;;30.20;20.23;;;;;;;8.54;100.00;102498.31;10014731;29;20478;-72
2021/12/13 20:27:49;;;;;;;30.10;20.38;;;;;;;8.44;100.00;102503.66;10026821;29;20151;-71
2021/12/13 20:33:07;;;;;;;32.33;20.92;;;;;;;8.47;100.00;102505.03;10015126;29;20465;-71
2021/12/13 20:38:10;;;;;;;34.10;21.52;;;;;;;8.45;100.00;102497.13;10019912;29;20091;-71
2021/12/13 20:43:19;;;;;;;32.45;20.92;;;;;;;8.48;100.00;102487.63;10021002;29;20076;-71
2021/12/13 20:48:19;;;;;;;33.55;22.10;;;;;;;8.45;100.00;102494.41;10024782;29;20067;-71
2021/12/13 20:53:23;;;;;;;30.83;19.98;;;;;;;8.44;100.00;102492.75;10020805;28;20107;-71
2021/12/13 20:58:23;;;;;;;30.85;20.45;;;;;;;8.44;100.00;102495.47;10020253;28;20044;-72
2021/12/13 21:03:26;;;;;;;29.02;19.88;;;;;;;8.46;100.00;102501.50;10018864;29;20048;-72
2021/12/13 21:08:24;;;;;;;;;;;;;;;8.48;100.00;102485.72;10020142;29;20051;-71
2021/12/13 21:13:25;;;;;;;40.28;24.17;;;;;;;8.50;100.00;102491.72;10014592;29;19974;-71
2021/12/13 21:18:34;;;;;;;29.55;20.58;;;;;;;8.52;100.00;102491.47;10023143;29;20102;-72
2021/12/13 21:23:35;;;;;;;29.38;21.13;;;;;;;8.54;100.00;102494.72;10041843;28;20048;-72
2021/12/13 21:28:40;;;;;;;32.97;21.65;;;;;;;8.56;100.00;102487.97;10018438;29;20079;-69
2021/12/13 21:33:45;;;;;;;28.30;19.88;;;;;;;8.55;100.00;102489.03;10019594;29;20048;-69
2021/12/13 21:44:10;;;;;;;29.85;19.65;;;;;;;8.54;100.00;102492.84;10017387;29;20513;-71
2021/12/13 21:49:10;;;;;;;30.20;21.33;;;;;;;8.56;100.00;102479.78;10017578;29;20075;-69
2021/12/13 21:54:12;;;;;;;28.58;19.27;;;;;;;8.47;100.00;102481.34;10024159;29;20071;-69
2021/12/13 21:59:30;;;;;;;32.00;20.65;;;;;;;8.50;100.00;102480.81;10015745;29;20083;-69
2021/12/13 22:04:37;;;;;;;28.20;18.98;;;;;;;8.54;100.00;102476.50;10021457;29;20455;-69
2021/12/13 22:09:42;;;;;;;25.17;18.42;;;;;;;8.57;100.00;102481.41;10015462;29;20044;-68
2021/12/13 22:14:44;;;;;;;25.30;18.13;;;;;;;8.49;100.00;102481.06;10016603;29;20083;-69
2021/12/13 22:19:47;;;;;;;27.30;19.93;;;;;;;8.55;100.00;102478.13;10016690;28;20082;-69
2021/12/13 22:24:57;;;;;;;30.73;20.00;;;;;;;8.50;100.00;102480.81;10017537;28;20075;-70
2021/12/13 22:29:55;;;;;;;26.35;18.77;;;;;;;8.52;100.00;102477.84;10020119;29;20154;-68
2021/12/13 22:34:57;;;;;;;23.50;16.92;;;;;;;8.49;100.00;102473.69;10015535;29;20539;-70
2021/12/13 22:40:02;;;;;;;29.08;17.35;;;;;;;8.48;100.00;102472.06;10019236;29;20176;-67
2021/12/13 22:45:00;;;;;;;37.00;19.75;;;;;;;8.42;100.00;102467.66;10009425;29;20051;-67
2021/12/13 22:50:03;;;;;;;27.02;18.58;;;;;;;8.40;100.00;102472.53;10020701;29;20048;-68
2021/12/13 22:55:08;;;;;;;25.40;17.55;;;;;;;8.46;100.00;102474.22;10018936;29;20107;-68
2021/12/13 23:00:20;;;;;;;27.45;17.50;;;;;;;8.49;100.00;102470.16;10012731;28;20472;-69
2021/12/13 23:05:19;;;;;;;30.58;18.40;;;;;;;8.48;100.00;102469.34;10019288;29;20047;-72
2021/12/13 23:10:34;;;;;;;23.33;17.00;;;;;;;8.43;100.00;102452.97;10021169;28;20047;-70